Date,TemperatureHighF,TemperatureAvgF,TemperatureLowF,DewpointHighF,DewpointAvgF,DewpointLowF,HumidityHigh,HumidityAvg,HumidityLow,PressureMaxIn,PressureMinIn,WindSpeedMaxMPH,WindSpeedAvgMPH,GustSpeedMaxMPH,PrecipitationSumIn
2013-3-1,34.0,29.6,25.8,26.9,24.0,19.6,89,80,68,30.19,30.02,7,3,11,0.00
2013-3-2,30.0,26.5,22.6,21.7,19.8,17.1,84,75,66,30.18,30.13,11,3,18,0.00
2013-3-3,29.1,23.9,15.4,21.3,17.3,12.3,88,76,63,30.16,30.10,11,3,16,0.00
2013-3-4,34.7,25.4,13.7,24.8,17.5,11.5,93,74,49,30.20,30.08,8,2,11,0.00
2013-3-5,32.2,29.2,26.2,27.1,25.2,22.5,96,85,72,30.11,29.81,17,5,21,0.00
2013-3-6,34.8,30.3,25.4,30.0,27.2,24.2,95,88,76,30.30,29.92,10,4,15,0.28
2013-3-7,35.5,31.5,23.4,30.4,26.7,21.2,95,83,60,30.46,30.30,9,3,13,0.05
2013-3-8,38.7,28.5,16.2,24.7,21.4,14.5,95,76,52,30.55,30.43,7,1,10,0.00
2013-3-9,42.4,35.7,28.7,34.0,28.2,21.4,80,74,63,30.42,29.98,15,5,20,0.00
2013-3-10,57.4,47.7,39.7,45.7,39.1,33.4,85,72,62,29.97,29.71,11,4,16,0.10
2013-3-11,52.5,42.6,33.1,46.6,39.8,29.9,96,90,72,29.77,29.55,17,6,22,0.13
2013-3-12,34.7,31.3,28.2,30.2,27.1,23.6,94,85,67,29.99,29.79,16,8,21,0.00
2013-3-13,28.4,25.6,22.7,24.8,19.7,14.8,93,79,59,30.34,30.00,13,8,24,0.01
2013-3-14,39.8,29.9,18.5,27.9,20.6,15.0,87,69,50,30.36,30.18,6,3,12,0.00
2013-3-15,44.5,35.3,28.2,37.1,32.5,27.0,95,90,72,30.15,29.83,9,3,10,0.09
2013-3-16,36.5,32.6,28.0,35.5,29.9,21.7,96,90,77,30.13,29.70,9,4,13,0.00
2013-3-17,34.8,29.9,27.4,24.2,21.5,19.0,81,71,56,30.25,30.14,13,5,22,0.01
2013-3-18,33.3,29.6,26.8,32.0,26.4,19.8,96,88,74,30.11,29.63,22,8,28,0.05
2013-3-19,32.0,26.4,18.6,20.1,16.4,13.1,82,66,52,30.08,29.80,24,13,33,0.00
2013-3-20,27.4,21.3,17.5,17.9,13.7,8.4,90,73,60,30.09,30.04,14,8,23,0.00
2013-3-21,27.2,20.3,16.7,18.9,16.2,14.2,93,85,65,30.09,30.01,12,5,19,0.06
2013-3-22,35.0,25.1,14.1,22.0,17.0,12.2,93,73,45,30.12,30.06,9,2,15,0.00
2013-3-23,37.2,28.3,19.7,25.3,22.2,18.0,93,79,61,30.18,30.06,5,2,10,0.00
2013-3-24,36.2,30.9,25.1,26.5,24.3,21.6,87,77,63,30.07,29.65,14,5,21,0.00
2013-3-25,35.5,32.0,29.1,28.3,25.9,23.4,83,78,72,30.04,29.66,13,5,18,0.00
2013-3-26,37.4,33.5,30.5,31.0,29.1,27.2,94,84,73,30.26,30.04,10,4,16,0.02
2013-3-27,40.9,34.5,24.3,31.5,25.1,18.4,92,70,46,30.34,30.26,10,4,19,0.00
2013-3-28,45.1,33.8,20.8,30.3,21.9,18.1,92,64,39,30.37,30.32,8,2,15,0.00
2013-3-29,48.6,37.4,24.0,28.8,21.4,19.0,87,56,32,30.36,30.27,10,2,16,0.00
2013-3-30,55.3,42.3,23.8,34.5,27.8,18.2,85,58,41,30.29,29.94,7,2,14,0.00
2013-3-31,56.1,46.5,37.8,42.2,35.5,28.6,95,67,47,29.93,29.70,18,8,26,0.01